sensor_id;sensor_type;location;lat;lon;timestamp;P1;durP1;ratioP1;P2;durP2;ratioP2
71896;SDS011;59767;51.344;12.362;2022-09-12T00:01:32;16.75;;;8.88;;
71896;SDS011;59767;51.344;12.362;2022-09-12T00:04:37;15.38;;;8.68;;
71896;SDS011;59767;51.344;12.362;2022-09-12T00:07:41;18.38;;;9.43;;
71896;SDS011;59767;51.344;12.362;2022-09-12T00:10:45;14.95;;;8.93;;
71896;SDS011;59767;51.344;12.362;2022-09-12T00:13:49;16.25;;;9.77;;
71896;SDS011;59767;51.344;12.362;2022-09-12T00:16:56;15.70;;;9.13;;
71896;SDS011;59767;51.344;12.362;2022-09-12T00:20:04;17.08;;;9.98;;
71896;SDS011;59767;51.344;12.362;2022-09-12T00:23:10;15.93;;;9.70;;
71896;SDS011;59767;51.344;12.362;2022-09-12T00:26:15;18.80;;;9.75;;
71896;SDS011;59767;51.344;12.362;2022-09-12T00:29:21;17.80;;;9.93;;
71896;SDS011;59767;51.344;12.362;2022-09-12T00:32:25;17.58;;;10.60;;
71896;SDS011;59767;51.344;12.362;2022-09-12T00:35:29;18.88;;;9.52;;
71896;SDS011;59767;51.344;12.362;2022-09-12T00:38:33;16.95;;;10.15;;
71896;SDS011;59767;51.344;12.362;2022-09-12T00:41:41;18.75;;;10.30;;
71896;SDS011;59767;51.344;12.362;2022-09-12T00:44:47;17.25;;;9.93;;
71896;SDS011;59767;51.344;12.362;2022-09-12T00:47:54;19.73;;;10.25;;
71896;SDS011;59767;51.344;12.362;2022-09-12T00:51:00;20.35;;;10.15;;
71896;SDS011;59767;51.344;12.362;2022-09-12T00:54:06;17.48;;;10.07;;
71896;SDS011;59767;51.344;12.362;2022-09-12T00:57:14;17.67;;;10.75;;
71896;SDS011;59767;51.344;12.362;2022-09-12T01:00:22;18.10;;;10.10;;
71896;SDS011;59767;51.344;12.362;2022-09-12T01:03:27;17.08;;;10.65;;
71896;SDS011;59767;51.344;12.362;2022-09-12T01:06:33;19.13;;;10.63;;
71896;SDS011;59767;51.344;12.362;2022-09-12T01:09:40;19.75;;;10.45;;
71896;SDS011;59767;51.344;12.362;2022-09-12T01:12:48;18.73;;;11.13;;
71896;SDS011;59767;51.344;12.362;2022-09-12T01:15:52;16.55;;;10.20;;
71896;SDS011;59767;51.344;12.362;2022-09-12T01:19:01;16.80;;;10.45;;
71896;SDS011;59767;51.344;12.362;2022-09-12T01:29:16;21.63;;;11.10;;
71896;SDS011;59767;51.344;12.362;2022-09-12T01:35:46;18.85;;;10.68;;
71896;SDS011;59767;51.344;12.362;2022-09-12T01:43:10;21.27;;;11.60;;
71896;SDS011;59767;51.344;12.362;2022-09-12T01:49:57;19.30;;;11.50;;
71896;SDS011;59767;51.344;12.362;2022-09-12T01:53:12;19.15;;;11.73;;
71896;SDS011;59767;51.344;12.362;2022-09-12T01:56:25;18.55;;;10.57;;
71896;SDS011;59767;51.344;12.362;2022-09-12T01:59:33;19.48;;;11.43;;
71896;SDS011;59767;51.344;12.362;2022-09-12T02:02:59;25.17;;;11.88;;
71896;SDS011;59767;51.344;12.362;2022-09-12T02:06:24;18.70;;;11.37;;
71896;SDS011;59767;51.344;12.362;2022-09-12T02:09:36;19.65;;;12.15;;
71896;SDS011;59767;51.344;12.362;2022-09-12T02:12:51;22.85;;;12.75;;
71896;SDS011;59767;51.344;12.362;2022-09-12T02:16:08;21.55;;;12.25;;
71896;SDS011;59767;51.344;12.362;2022-09-12T02:19:15;25.67;;;12.50;;
71896;SDS011;59767;51.344;12.362;2022-09-12T02:22:22;20.17;;;12.13;;
71896;SDS011;59767;51.344;12.362;2022-09-12T02:25:29;21.27;;;12.60;;
71896;SDS011;59767;51.344;12.362;2022-09-12T02:28:34;21.83;;;11.90;;
71896;SDS011;59767;51.344;12.362;2022-09-12T02:31:45;20.83;;;12.05;;
71896;SDS011;59767;51.344;12.362;2022-09-12T02:34:55;23.08;;;12.48;;
71896;SDS011;59767;51.344;12.362;2022-09-12T02:38:12;19.88;;;12.00;;
71896;SDS011;59767;51.344;12.362;2022-09-12T02:41:22;19.70;;;11.77;;
71896;SDS011;59767;51.344;12.362;2022-09-12T02:44:28;21.95;;;12.43;;
71896;SDS011;59767;51.344;12.362;2022-09-12T02:47:41;21.70;;;12.55;;
71896;SDS011;59767;51.344;12.362;2022-09-12T02:50:49;24.08;;;13.00;;
71896;SDS011;59767;51.344;12.362;2022-09-12T02:53:54;24.70;;;12.75;;
71896;SDS011;59767;51.344;12.362;2022-09-12T02:56:58;23.88;;;12.70;;
71896;SDS011;59767;51.344;12.362;2022-09-12T03:00:02;22.42;;;13.23;;
71896;SDS011;59767;51.344;12.362;2022-09-12T03:03:12;26.95;;;14.15;;
71896;SDS011;59767;51.344;12.362;2022-09-12T03:06:44;24.80;;;13.63;;
71896;SDS011;59767;51.344;12.362;2022-09-12T03:10:17;21.85;;;13.25;;
71896;SDS011;59767;51.344;12.362;2022-09-12T03:17:04;24.98;;;13.52;;
71896;SDS011;59767;51.344;12.362;2022-09-12T03:20:17;26.58;;;13.35;;
71896;SDS011;59767;51.344;12.362;2022-09-12T03:26:39;24.80;;;13.90;;
71896;SDS011;59767;51.344;12.362;2022-09-12T03:29:51;24.95;;;14.23;;
71896;SDS011;59767;51.344;12.362;2022-09-12T03:32:56;26.77;;;14.73;;
71896;SDS011;59767;51.344;12.362;2022-09-12T03:36:00;22.33;;;13.80;;
71896;SDS011;59767;51.344;12.362;2022-09-12T03:39:04;22.88;;;13.88;;
71896;SDS011;59767;51.344;12.362;2022-09-12T03:42:09;22.88;;;13.48;;
71896;SDS011;59767;51.344;12.362;2022-09-12T03:45:13;22.60;;;13.60;;
71896;SDS011;59767;51.344;12.362;2022-09-12T03:48:19;22.10;;;13.63;;
71896;SDS011;59767;51.344;12.362;2022-09-12T03:51:23;21.77;;;13.60;;
71896;SDS011;59767;51.344;12.362;2022-09-12T03:54:28;24.60;;;14.38;;
71896;SDS011;59767;51.344;12.362;2022-09-12T03:57:32;23.80;;;13.48;;
71896;SDS011;59767;51.344;12.362;2022-09-12T04:00:37;26.08;;;14.15;;
71896;SDS011;59767;51.344;12.362;2022-09-12T04:03:42;25.02;;;14.18;;
71896;SDS011;59767;51.344;12.362;2022-09-12T04:06:47;26.42;;;14.15;;
71896;SDS011;59767;51.344;12.362;2022-09-12T04:09:52;22.65;;;13.70;;
71896;SDS011;59767;51.344;12.362;2022-09-12T04:12:56;24.27;;;13.65;;
71896;SDS011;59767;51.344;12.362;2022-09-12T04:16:00;25.98;;;14.90;;
71896;SDS011;59767;51.344;12.362;2022-09-12T04:19:05;25.67;;;14.68;;
71896;SDS011;59767;51.344;12.362;2022-09-12T04:22:09;26.52;;;14.90;;
71896;SDS011;59767;51.344;12.362;2022-09-12T04:25:13;25.92;;;14.65;;
71896;SDS011;59767;51.344;12.362;2022-09-12T04:28:18;25.42;;;14.93;;
71896;SDS011;59767;51.344;12.362;2022-09-12T04:31:23;25.20;;;14.90;;
71896;SDS011;59767;51.344;12.362;2022-09-12T04:34:30;25.48;;;14.35;;
71896;SDS011;59767;51.344;12.362;2022-09-12T04:37:35;24.63;;;14.60;;
71896;SDS011;59767;51.344;12.362;2022-09-12T04:40:39;25.90;;;14.77;;
71896;SDS011;59767;51.344;12.362;2022-09-12T04:43:43;27.63;;;15.25;;
71896;SDS011;59767;51.344;12.362;2022-09-12T04:46:51;28.90;;;15.80;;
71896;SDS011;59767;51.344;12.362;2022-09-12T04:49:55;24.88;;;14.93;;
71896;SDS011;59767;51.344;12.362;2022-09-12T04:53:00;25.83;;;14.82;;
71896;SDS011;59767;51.344;12.362;2022-09-12T04:56:05;23.52;;;14.32;;
71896;SDS011;59767;51.344;12.362;2022-09-12T04:59:12;26.85;;;14.85;;
71896;SDS011;59767;51.344;12.362;2022-09-12T05:02:17;26.60;;;15.68;;
71896;SDS011;59767;51.344;12.362;2022-09-12T05:05:21;26.35;;;15.57;;
71896;SDS011;59767;51.344;12.362;2022-09-12T05:08:25;24.35;;;15.18;;
71896;SDS011;59767;51.344;12.362;2022-09-12T05:11:30;27.90;;;15.20;;
71896;SDS011;59767;51.344;12.362;2022-09-12T05:14:56;26.05;;;14.38;;
71896;SDS011;59767;51.344;12.362;2022-09-12T05:18:00;27.92;;;15.23;;
71896;SDS011;59767;51.344;12.362;2022-09-12T05:21:07;26.67;;;15.55;;
71896;SDS011;59767;51.344;12.362;2022-09-12T05:24:12;28.75;;;16.25;;
71896;SDS011;59767;51.344;12.362;2022-09-12T05:27:16;26.90;;;14.90;;
71896;SDS011;59767;51.344;12.362;2022-09-12T05:30:20;27.30;;;16.02;;
71896;SDS011;59767;51.344;12.362;2022-09-12T05:33:24;28.80;;;15.27;;
71896;SDS011;59767;51.344;12.362;2022-09-12T05:36:29;26.52;;;15.82;;
71896;SDS011;59767;51.344;12.362;2022-09-12T05:39:33;27.88;;;16.20;;
71896;SDS011;59767;51.344;12.362;2022-09-12T05:42:38;30.98;;;15.98;;
71896;SDS011;59767;51.344;12.362;2022-09-12T05:45:42;24.02;;;14.25;;
71896;SDS011;59767;51.344;12.362;2022-09-12T05:48:46;27.77;;;16.00;;
71896;SDS011;59767;51.344;12.362;2022-09-12T05:51:57;28.73;;;15.50;;
71896;SDS011;59767;51.344;12.362;2022-09-12T05:55:02;26.33;;;15.48;;
71896;SDS011;59767;51.344;12.362;2022-09-12T05:58:07;29.92;;;15.55;;
71896;SDS011;59767;51.344;12.362;2022-09-12T06:01:13;25.27;;;15.15;;
71896;SDS011;59767;51.344;12.362;2022-09-12T06:04:19;26.95;;;14.65;;
71896;SDS011;59767;51.344;12.362;2022-09-12T06:07:27;27.55;;;16.27;;
71896;SDS011;59767;51.344;12.362;2022-09-12T06:10:32;26.00;;;16.42;;
71896;SDS011;59767;51.344;12.362;2022-09-12T06:13:38;27.02;;;16.27;;
71896;SDS011;59767;51.344;12.362;2022-09-12T06:16:43;28.02;;;16.63;;
71896;SDS011;59767;51.344;12.362;2022-09-12T06:19:48;31.27;;;17.15;;
71896;SDS011;59767;51.344;12.362;2022-09-12T06:22:54;31.52;;;16.77;;
71896;SDS011;59767;51.344;12.362;2022-09-12T06:25:59;31.50;;;15.95;;
71896;SDS011;59767;51.344;12.362;2022-09-12T06:29:04;29.23;;;16.30;;
71896;SDS011;59767;51.344;12.362;2022-09-12T06:32:09;28.75;;;16.40;;
71896;SDS011;59767;51.344;12.362;2022-09-12T06:35:14;27.42;;;15.40;;
71896;SDS011;59767;51.344;12.362;2022-09-12T06:38:18;31.83;;;16.40;;
71896;SDS011;59767;51.344;12.362;2022-09-12T06:41:22;26.55;;;14.75;;
71896;SDS011;59767;51.344;12.362;2022-09-12T06:44:28;28.10;;;15.55;;
71896;SDS011;59767;51.344;12.362;2022-09-12T06:47:32;30.13;;;16.00;;
71896;SDS011;59767;51.344;12.362;2022-09-12T06:50:37;25.20;;;15.05;;
71896;SDS011;59767;51.344;12.362;2022-09-12T06:53:42;26.27;;;15.02;;
71896;SDS011;59767;51.344;12.362;2022-09-12T06:56:47;25.00;;;14.55;;
71896;SDS011;59767;51.344;12.362;2022-09-12T06:59:51;30.77;;;16.45;;
71896;SDS011;59767;51.344;12.362;2022-09-12T07:02:55;24.40;;;14.60;;
71896;SDS011;59767;51.344;12.362;2022-09-12T07:09:08;32.83;;;13.98;;
71896;SDS011;59767;51.344;12.362;2022-09-12T07:12:15;31.88;;;14.20;;
71896;SDS011;59767;51.344;12.362;2022-09-12T07:15:19;27.27;;;13.75;;
71896;SDS011;59767;51.344;12.362;2022-09-12T07:18:23;21.55;;;14.30;;
71896;SDS011;59767;51.344;12.362;2022-09-12T07:21:27;28.05;;;13.82;;
71896;SDS011;59767;51.344;12.362;2022-09-12T07:24:32;25.08;;;13.25;;
71896;SDS011;59767;51.344;12.362;2022-09-12T07:27:37;24.58;;;13.45;;
71896;SDS011;59767;51.344;12.362;2022-09-12T07:30:41;21.45;;;13.50;;
71896;SDS011;59767;51.344;12.362;2022-09-12T07:33:45;25.13;;;13.23;;
71896;SDS011;59767;51.344;12.362;2022-09-12T07:36:56;22.33;;;13.30;;
71896;SDS011;59767;51.344;12.362;2022-09-12T07:40:01;21.25;;;12.50;;
71896;SDS011;59767;51.344;12.362;2022-09-12T07:43:05;27.77;;;12.70;;
71896;SDS011;59767;51.344;12.362;2022-09-12T07:46:10;21.27;;;12.50;;
71896;SDS011;59767;51.344;12.362;2022-09-12T07:49:15;22.55;;;12.30;;
71896;SDS011;59767;51.344;12.362;2022-09-12T07:52:19;19.48;;;11.75;;
71896;SDS011;59767;51.344;12.362;2022-09-12T07:55:24;21.55;;;12.48;;
71896;SDS011;59767;51.344;12.362;2022-09-12T07:58:28;23.08;;;13.10;;
71896;SDS011;59767;51.344;12.362;2022-09-12T08:01:33;19.70;;;12.35;;
71896;SDS011;59767;51.344;12.362;2022-09-12T08:04:38;21.50;;;13.13;;
71896;SDS011;59767;51.344;12.362;2022-09-12T08:07:45;23.35;;;12.77;;
71896;SDS011;59767;51.344;12.362;2022-09-12T08:10:55;20.80;;;12.70;;
71896;SDS011;59767;51.344;12.362;2022-09-12T08:14:00;21.20;;;12.35;;
71896;SDS011;59767;51.344;12.362;2022-09-12T08:17:05;23.08;;;11.32;;
71896;SDS011;59767;51.344;12.362;2022-09-12T08:20:09;18.90;;;10.95;;
71896;SDS011;59767;51.344;12.362;2022-09-12T08:23:15;21.35;;;11.60;;
71896;SDS011;59767;51.344;12.362;2022-09-12T08:26:20;18.77;;;10.25;;
71896;SDS011;59767;51.344;12.362;2022-09-12T08:29:24;16.00;;;9.43;;
71896;SDS011;59767;51.344;12.362;2022-09-12T08:32:33;23.05;;;9.65;;
71896;SDS011;59767;51.344;12.362;2022-09-12T08:35:37;26.17;;;9.85;;
71896;SDS011;59767;51.344;12.362;2022-09-12T08:38:44;15.30;;;7.90;;
71896;SDS011;59767;51.344;12.362;2022-09-12T08:41:57;16.42;;;8.30;;
71896;SDS011;59767;51.344;12.362;2022-09-12T08:48:19;15.68;;;8.02;;
71896;SDS011;59767;51.344;12.362;2022-09-12T08:51:24;17.27;;;7.53;;
71896;SDS011;59767;51.344;12.362;2022-09-12T08:54:30;15.40;;;6.90;;
71896;SDS011;59767;51.344;12.362;2022-09-12T08:57:36;14.57;;;7.22;;
71896;SDS011;59767;51.344;12.362;2022-09-12T09:00:44;15.10;;;7.35;;
71896;SDS011;59767;51.344;12.362;2022-09-12T09:18:30;11.88;;;6.60;;
71896;SDS011;59767;51.344;12.362;2022-09-12T09:21:42;12.10;;;6.57;;
71896;SDS011;59767;51.344;12.362;2022-09-12T09:25:01;16.48;;;6.90;;
71896;SDS011;59767;51.344;12.362;2022-09-12T09:31:32;12.25;;;6.90;;
71896;SDS011;59767;51.344;12.362;2022-09-12T09:34:40;11.13;;;6.63;;
71896;SDS011;59767;51.344;12.362;2022-09-12T09:38:01;11.48;;;6.30;;
71896;SDS011;59767;51.344;12.362;2022-09-12T09:44:21;12.00;;;5.32;;
71896;SDS011;59767;51.344;12.362;2022-09-12T09:47:26;10.38;;;4.95;;
71896;SDS011;59767;51.344;12.362;2022-09-12T09:50:30;10.35;;;5.25;;
71896;SDS011;59767;51.344;12.362;2022-09-12T09:53:46;7.80;;;4.18;;
71896;SDS011;59767;51.344;12.362;2022-09-12T09:56:54;7.40;;;4.18;;
71896;SDS011;59767;51.344;12.362;2022-09-12T10:03:31;7.80;;;3.95;;
71896;SDS011;59767;51.344;12.362;2022-09-12T10:06:36;8.82;;;4.18;;
71896;SDS011;59767;51.344;12.362;2022-09-12T10:09:41;7.43;;;3.33;;
71896;SDS011;59767;51.344;12.362;2022-09-12T10:13:09;7.13;;;3.33;;
71896;SDS011;59767;51.344;12.362;2022-09-12T10:16:28;7.15;;;3.15;;
71896;SDS011;59767;51.344;12.362;2022-09-12T10:19:38;5.93;;;3.25;;
71896;SDS011;59767;51.344;12.362;2022-09-12T10:22:45;6.05;;;3.00;;
71896;SDS011;59767;51.344;12.362;2022-09-12T10:25:57;7.10;;;3.30;;
71896;SDS011;59767;51.344;12.362;2022-09-12T10:29:26;8.50;;;3.33;;
71896;SDS011;59767;51.344;12.362;2022-09-12T10:32:33;7.13;;;3.30;;
71896;SDS011;59767;51.344;12.362;2022-09-12T10:35:44;7.35;;;3.25;;
71896;SDS011;59767;51.344;12.362;2022-09-12T10:38:52;8.95;;;4.10;;
71896;SDS011;59767;51.344;12.362;2022-09-12T10:42:03;8.68;;;3.70;;
71896;SDS011;59767;51.344;12.362;2022-09-12T10:45:25;10.07;;;3.50;;
71896;SDS011;59767;51.344;12.362;2022-09-12T10:48:30;8.13;;;3.17;;
71896;SDS011;59767;51.344;12.362;2022-09-12T10:51:35;6.82;;;2.85;;
71896;SDS011;59767;51.344;12.362;2022-09-12T10:54:40;9.70;;;4.10;;
71896;SDS011;59767;51.344;12.362;2022-09-12T10:57:53;6.22;;;3.10;;
71896;SDS011;59767;51.344;12.362;2022-09-12T11:01:33;6.07;;;3.22;;
71896;SDS011;59767;51.344;12.362;2022-09-12T11:15:10;6.47;;;2.30;;
71896;SDS011;59767;51.344;12.362;2022-09-12T11:25:22;7.53;;;2.65;;
71896;SDS011;59767;51.344;12.362;2022-09-12T11:41:57;4.75;;;2.00;;
71896;SDS011;59767;51.344;12.362;2022-09-12T11:45:48;4.72;;;2.13;;
71896;SDS011;59767;51.344;12.362;2022-09-12T11:48:56;5.03;;;2.20;;
71896;SDS011;59767;51.344;12.362;2022-09-12T11:52:19;4.32;;;2.15;;
71896;SDS011;59767;51.344;12.362;2022-09-12T11:55:27;5.40;;;2.25;;
71896;SDS011;59767;51.344;12.362;2022-09-12T11:58:50;4.20;;;2.20;;
71896;SDS011;59767;51.344;12.362;2022-09-12T12:02:00;4.88;;;2.50;;
71896;SDS011;59767;51.344;12.362;2022-09-12T12:05:27;6.28;;;2.30;;
71896;SDS011;59767;51.344;12.362;2022-09-12T12:08:37;5.78;;;1.80;;
71896;SDS011;59767;51.344;12.362;2022-09-12T12:11:47;4.25;;;2.10;;
71896;SDS011;59767;51.344;12.362;2022-09-12T12:14:56;4.90;;;2.20;;
71896;SDS011;59767;51.344;12.362;2022-09-12T12:18:03;3.55;;;1.77;;
71896;SDS011;59767;51.344;12.362;2022-09-12T12:24:37;4.53;;;1.75;;
71896;SDS011;59767;51.344;12.362;2022-09-12T12:35:32;3.13;;;1.70;;
71896;SDS011;59767;51.344;12.362;2022-09-12T12:38:41;3.88;;;1.70;;
71896;SDS011;59767;51.344;12.362;2022-09-12T12:41:45;4.57;;;1.80;;
71896;SDS011;59767;51.344;12.362;2022-09-12T12:44:50;4.18;;;1.90;;
71896;SDS011;59767;51.344;12.362;2022-09-12T12:57:48;4.53;;;1.83;;
71896;SDS011;59767;51.344;12.362;2022-09-12T13:01:11;3.67;;;1.92;;
71896;SDS011;59767;51.344;12.362;2022-09-12T13:04:22;6.28;;;1.85;;
71896;SDS011;59767;51.344;12.362;2022-09-12T13:07:33;6.72;;;1.65;;
71896;SDS011;59767;51.344;12.362;2022-09-12T13:10:40;5.57;;;1.80;;
71896;SDS011;59767;51.344;12.362;2022-09-12T13:17:04;3.67;;;2.00;;
71896;SDS011;59767;51.344;12.362;2022-09-12T13:20:15;6.25;;;1.80;;
71896;SDS011;59767;51.344;12.362;2022-09-12T13:23:32;3.38;;;1.70;;
71896;SDS011;59767;51.344;12.362;2022-09-12T13:26:42;5.43;;;1.95;;
71896;SDS011;59767;51.344;12.362;2022-09-12T13:30:36;2.85;;;1.52;;
71896;SDS011;59767;51.344;12.362;2022-09-12T13:33:29;4.15;;;2.10;;
71896;SDS011;59767;51.344;12.362;2022-09-12T13:36:56;4.32;;;1.90;;
71896;SDS011;59767;51.344;12.362;2022-09-12T13:43:42;3.80;;;1.80;;
71896;SDS011;59767;51.344;12.362;2022-09-12T13:46:49;3.47;;;1.75;;
71896;SDS011;59767;51.344;12.362;2022-09-12T13:49:55;2.85;;;1.70;;
71896;SDS011;59767;51.344;12.362;2022-09-12T13:53:01;3.67;;;1.75;;
71896;SDS011;59767;51.344;12.362;2022-09-12T13:56:14;5.07;;;1.73;;
71896;SDS011;59767;51.344;12.362;2022-09-12T13:59:20;3.88;;;1.80;;
71896;SDS011;59767;51.344;12.362;2022-09-12T14:02:26;2.88;;;1.70;;
71896;SDS011;59767;51.344;12.362;2022-09-12T14:05:32;6.50;;;1.60;;
71896;SDS011;59767;51.344;12.362;2022-09-12T14:08:40;5.60;;;1.50;;
71896;SDS011;59767;51.344;12.362;2022-09-12T14:11:46;2.10;;;1.40;;
71896;SDS011;59767;51.344;12.362;2022-09-12T14:14:51;3.30;;;1.60;;
71896;SDS011;59767;51.344;12.362;2022-09-12T14:17:57;4.65;;;1.65;;
71896;SDS011;59767;51.344;12.362;2022-09-12T14:21:08;3.45;;;1.60;;
71896;SDS011;59767;51.344;12.362;2022-09-12T14:24:15;3.13;;;1.67;;
71896;SDS011;59767;51.344;12.362;2022-09-12T14:27:23;4.43;;;1.67;;
71896;SDS011;59767;51.344;12.362;2022-09-12T14:30:30;2.95;;;1.70;;
71896;SDS011;59767;51.344;12.362;2022-09-12T14:33:49;3.00;;;1.60;;
71896;SDS011;59767;51.344;12.362;2022-09-12T14:37:19;6.03;;;1.70;;
71896;SDS011;59767;51.344;12.362;2022-09-12T14:40:26;3.85;;;1.60;;
71896;SDS011;59767;51.344;12.362;2022-09-12T14:43:38;4.43;;;1.85;;
71896;SDS011;59767;51.344;12.362;2022-09-12T14:46:47;7.45;;;1.60;;
71896;SDS011;59767;51.344;12.362;2022-09-12T14:49:51;3.88;;;1.67;;
71896;SDS011;59767;51.344;12.362;2022-09-12T14:53:04;3.65;;;1.77;;
71896;SDS011;59767;51.344;12.362;2022-09-12T14:56:12;2.58;;;1.80;;
71896;SDS011;59767;51.344;12.362;2022-09-12T15:02:27;2.20;;;1.55;;
71896;SDS011;59767;51.344;12.362;2022-09-12T15:05:32;5.38;;;1.70;;
71896;SDS011;59767;51.344;12.362;2022-09-12T15:08:36;4.50;;;1.90;;
71896;SDS011;59767;51.344;12.362;2022-09-12T15:11:40;4.47;;;1.77;;
71896;SDS011;59767;51.344;12.362;2022-09-12T15:14:44;6.97;;;2.30;;
71896;SDS011;59767;51.344;12.362;2022-09-12T15:17:48;6.90;;;2.20;;
71896;SDS011;59767;51.344;12.362;2022-09-12T15:20:56;3.75;;;1.90;;
71896;SDS011;59767;51.344;12.362;2022-09-12T15:24:06;4.60;;;2.00;;
71896;SDS011;59767;51.344;12.362;2022-09-12T15:27:11;4.38;;;1.90;;
71896;SDS011;59767;51.344;12.362;2022-09-12T15:30:15;4.95;;;2.00;;
71896;SDS011;59767;51.344;12.362;2022-09-12T15:33:21;5.72;;;1.95;;
71896;SDS011;59767;51.344;12.362;2022-09-12T15:36:28;4.25;;;2.00;;
71896;SDS011;59767;51.344;12.362;2022-09-12T15:39:32;5.40;;;1.80;;
71896;SDS011;59767;51.344;12.362;2022-09-12T15:42:36;6.03;;;2.20;;
71896;SDS011;59767;51.344;12.362;2022-09-12T15:45:44;5.78;;;2.50;;
71896;SDS011;59767;51.344;12.362;2022-09-12T15:48:49;7.05;;;2.10;;
71896;SDS011;59767;51.344;12.362;2022-09-12T15:51:53;5.13;;;2.00;;
71896;SDS011;59767;51.344;12.362;2022-09-12T15:54:57;6.43;;;2.00;;
71896;SDS011;59767;51.344;12.362;2022-09-12T15:58:01;5.18;;;2.20;;
71896;SDS011;59767;51.344;12.362;2022-09-12T16:01:10;6.75;;;2.30;;
71896;SDS011;59767;51.344;12.362;2022-09-12T16:04:23;4.00;;;1.90;;
71896;SDS011;59767;51.344;12.362;2022-09-12T16:07:29;6.72;;;2.00;;
71896;SDS011;59767;51.344;12.362;2022-09-12T16:10:36;7.47;;;2.13;;
71896;SDS011;59767;51.344;12.362;2022-09-12T16:13:41;4.80;;;1.80;;
71896;SDS011;59767;51.344;12.362;2022-09-12T16:16:52;4.78;;;2.22;;
71896;SDS011;59767;51.344;12.362;2022-09-12T16:19:57;5.32;;;2.10;;
71896;SDS011;59767;51.344;12.362;2022-09-12T16:23:01;5.30;;;2.15;;
71896;SDS011;59767;51.344;12.362;2022-09-12T16:26:05;4.78;;;2.03;;
71896;SDS011;59767;51.344;12.362;2022-09-12T16:29:11;4.97;;;2.13;;
71896;SDS011;59767;51.344;12.362;2022-09-12T16:32:16;6.22;;;2.13;;
71896;SDS011;59767;51.344;12.362;2022-09-12T16:35:20;4.45;;;1.80;;
71896;SDS011;59767;51.344;12.362;2022-09-12T16:38:24;4.22;;;2.05;;
71896;SDS011;59767;51.344;12.362;2022-09-12T16:41:28;6.47;;;2.10;;
71896;SDS011;59767;51.344;12.362;2022-09-12T16:44:33;6.55;;;2.40;;
71896;SDS011;59767;51.344;12.362;2022-09-12T16:47:37;9.35;;;2.67;;
71896;SDS011;59767;51.344;12.362;2022-09-12T16:50:41;7.93;;;2.50;;
71896;SDS011;59767;51.344;12.362;2022-09-12T16:53:45;5.38;;;2.50;;
71896;SDS011;59767;51.344;12.362;2022-09-12T16:56:51;4.38;;;2.40;;
71896;SDS011;59767;51.344;12.362;2022-09-12T16:59:55;7.60;;;2.30;;
71896;SDS011;59767;51.344;12.362;2022-09-12T17:02:59;5.82;;;2.33;;
71896;SDS011;59767;51.344;12.362;2022-09-12T17:06:04;6.53;;;2.38;;
71896;SDS011;59767;51.344;12.362;2022-09-12T17:09:11;5.70;;;2.60;;
71896;SDS011;59767;51.344;12.362;2022-09-12T17:12:21;7.07;;;2.25;;
71896;SDS011;59767;51.344;12.362;2022-09-12T17:15:26;6.00;;;2.40;;
71896;SDS011;59767;51.344;12.362;2022-09-12T17:18:31;8.25;;;2.58;;
71896;SDS011;59767;51.344;12.362;2022-09-12T17:21:35;6.80;;;2.50;;
71896;SDS011;59767;51.344;12.362;2022-09-12T17:24:39;5.65;;;2.20;;
71896;SDS011;59767;51.344;12.362;2022-09-12T17:27:44;6.05;;;2.35;;
71896;SDS011;59767;51.344;12.362;2022-09-12T17:30:53;7.50;;;2.30;;
71896;SDS011;59767;51.344;12.362;2022-09-12T17:33:58;7.97;;;2.50;;
71896;SDS011;59767;51.344;12.362;2022-09-12T17:37:03;7.13;;;3.13;;
71896;SDS011;59767;51.344;12.362;2022-09-12T17:40:08;6.72;;;2.42;;
71896;SDS011;59767;51.344;12.362;2022-09-12T17:43:13;7.50;;;2.45;;
71896;SDS011;59767;51.344;12.362;2022-09-12T17:46:17;5.13;;;2.40;;
71896;SDS011;59767;51.344;12.362;2022-09-12T17:49:22;6.15;;;2.78;;
71896;SDS011;59767;51.344;12.362;2022-09-12T17:52:26;6.80;;;2.60;;
71896;SDS011;59767;51.344;12.362;2022-09-12T17:55:35;6.93;;;2.35;;
71896;SDS011;59767;51.344;12.362;2022-09-12T17:58:40;6.68;;;2.60;;
71896;SDS011;59767;51.344;12.362;2022-09-12T18:01:44;9.85;;;2.38;;
71896;SDS011;59767;51.344;12.362;2022-09-12T18:05:07;7.50;;;2.50;;
71896;SDS011;59767;51.344;12.362;2022-09-12T18:08:13;5.10;;;2.22;;
71896;SDS011;59767;51.344;12.362;2022-09-12T18:11:18;6.40;;;2.60;;
71896;SDS011;59767;51.344;12.362;2022-09-12T18:14:22;5.40;;;2.08;;
71896;SDS011;59767;51.344;12.362;2022-09-12T18:17:27;9.23;;;2.70;;
71896;SDS011;59767;51.344;12.362;2022-09-12T18:20:31;6.63;;;2.33;;
71896;SDS011;59767;51.344;12.362;2022-09-12T18:23:35;6.55;;;2.40;;
71896;SDS011;59767;51.344;12.362;2022-09-12T18:26:40;8.88;;;2.72;;
71896;SDS011;59767;51.344;12.362;2022-09-12T18:29:46;8.75;;;2.30;;
71896;SDS011;59767;51.344;12.362;2022-09-12T18:33:10;11.43;;;3.00;;
71896;SDS011;59767;51.344;12.362;2022-09-12T18:36:18;5.45;;;2.28;;
71896;SDS011;59767;51.344;12.362;2022-09-12T18:39:22;5.75;;;2.42;;
71896;SDS011;59767;51.344;12.362;2022-09-12T18:42:30;9.35;;;2.90;;
71896;SDS011;59767;51.344;12.362;2022-09-12T18:45:35;8.88;;;2.70;;
71896;SDS011;59767;51.344;12.362;2022-09-12T18:48:39;7.80;;;2.53;;
71896;SDS011;59767;51.344;12.362;2022-09-12T18:51:44;7.55;;;2.55;;
71896;SDS011;59767;51.344;12.362;2022-09-12T18:54:48;7.25;;;3.17;;
71896;SDS011;59767;51.344;12.362;2022-09-12T18:57:53;8.55;;;2.72;;
71896;SDS011;59767;51.344;12.362;2022-09-12T19:00:58;8.18;;;3.00;;
71896;SDS011;59767;51.344;12.362;2022-09-12T19:04:03;8.55;;;3.15;;
71896;SDS011;59767;51.344;12.362;2022-09-12T19:07:09;8.57;;;2.95;;
71896;SDS011;59767;51.344;12.362;2022-09-12T19:10:13;6.40;;;2.80;;
71896;SDS011;59767;51.344;12.362;2022-09-12T19:13:18;6.03;;;2.50;;
71896;SDS011;59767;51.344;12.362;2022-09-12T19:16:24;6.80;;;2.72;;
71896;SDS011;59767;51.344;12.362;2022-09-12T19:19:30;6.13;;;2.60;;
71896;SDS011;59767;51.344;12.362;2022-09-12T19:22:35;7.28;;;2.85;;
71896;SDS011;59767;51.344;12.362;2022-09-12T19:25:40;6.30;;;2.88;;
71896;SDS011;59767;51.344;12.362;2022-09-12T19:28:44;6.18;;;2.70;;
71896;SDS011;59767;51.344;12.362;2022-09-12T19:31:49;5.32;;;2.55;;
71896;SDS011;59767;51.344;12.362;2022-09-12T19:34:53;6.20;;;2.58;;
71896;SDS011;59767;51.344;12.362;2022-09-12T19:37:57;7.20;;;2.47;;
71896;SDS011;59767;51.344;12.362;2022-09-12T19:41:02;5.68;;;2.70;;
71896;SDS011;59767;51.344;12.362;2022-09-12T19:44:08;5.13;;;2.55;;
71896;SDS011;59767;51.344;12.362;2022-09-12T19:47:14;5.38;;;2.70;;
71896;SDS011;59767;51.344;12.362;2022-09-12T19:50:18;6.38;;;3.00;;
71896;SDS011;59767;51.344;12.362;2022-09-12T19:53:23;6.43;;;2.50;;
71896;SDS011;59767;51.344;12.362;2022-09-12T19:56:27;7.82;;;2.90;;
71896;SDS011;59767;51.344;12.362;2022-09-12T19:59:32;9.07;;;2.83;;
71896;SDS011;59767;51.344;12.362;2022-09-12T20:02:36;7.07;;;3.15;;
71896;SDS011;59767;51.344;12.362;2022-09-12T20:05:40;7.40;;;2.70;;
71896;SDS011;59767;51.344;12.362;2022-09-12T20:08:45;5.97;;;2.90;;
71896;SDS011;59767;51.344;12.362;2022-09-12T20:11:49;6.07;;;2.70;;
71896;SDS011;59767;51.344;12.362;2022-09-12T20:14:54;6.60;;;2.58;;
71896;SDS011;59767;51.344;12.362;2022-09-12T20:17:58;7.63;;;2.42;;